sensor_id;sensor_type;location;lat;lon;timestamp;pressure;altitude;pressure_sealevel;temperature;humidity
5298;BME280;14738;42.668;23.250;2023-04-06T00:00:59;48628.53;;;-141.90;56.76
5298;BME280;14738;42.668;23.250;2023-04-06T00:03:24;48630.53;;;-141.90;57.00
5298;BME280;14738;42.668;23.250;2023-04-06T00:05:50;48608.69;;;-141.90;55.92
5298;BME280;14738;42.668;23.250;2023-04-06T00:08:16;48634.50;;;-141.90;56.06
5298;BME280;14738;42.668;23.250;2023-04-06T00:10:42;48618.59;;;-141.90;56.39
5298;BME280;14738;42.668;23.250;2023-04-06T00:13:07;48610.66;;;-141.90;56.07
5298;BME280;14738;42.668;23.250;2023-04-06T00:15:33;48596.78;;;-141.90;55.87
5298;BME280;14738;42.668;23.250;2023-04-06T00:17:59;48600.75;;;-141.90;56.02
5298;BME280;14738;42.668;23.250;2023-04-06T00:20:24;48626.56;;;-141.90;55.75
5298;BME280;14738;42.668;23.250;2023-04-06T00:22:50;48592.81;;;-141.90;56.19
5298;BME280;14738;42.668;23.250;2023-04-06T00:25:16;48616.63;;;-141.90;55.28
5298;BME280;14738;42.668;23.250;2023-04-06T00:27:41;48600.75;;;-141.90;55.70
5298;BME280;14738;42.668;23.250;2023-04-06T00:30:08;48582.88;;;-141.90;55.34
5298;BME280;14738;42.668;23.250;2023-04-06T00:32:36;48604.72;;;-141.90;56.03
5298;BME280;14738;42.668;23.250;2023-04-06T00:35:03;48594.78;;;-141.90;55.60
5298;BME280;14738;42.668;23.250;2023-04-06T00:37:29;48644.41;;;-141.90;56.19
5298;BME280;14738;42.668;23.250;2023-04-06T00:39:54;48616.63;;;-141.90;55.75
5298;BME280;14738;42.668;23.250;2023-04-06T00:42:28;48622.59;;;-141.90;56.28
5298;BME280;14738;42.668;23.250;2023-04-06T00:44:56;48620.59;;;-141.90;55.63
5298;BME280;14738;42.668;23.250;2023-04-06T00:47:22;48602.72;;;-141.90;55.59
5298;BME280;14738;42.668;23.250;2023-04-06T00:49:48;48612.66;;;-141.90;55.23
5298;BME280;14738;42.668;23.250;2023-04-06T00:52:14;48612.66;;;-141.90;54.92
5298;BME280;14738;42.668;23.250;2023-04-06T00:54:40;48620.59;;;-141.90;54.67
5298;BME280;14738;42.668;23.250;2023-04-06T00:57:05;48592.81;;;-141.90;54.69
5298;BME280;14738;42.668;23.250;2023-04-06T00:59:31;48598.75;;;-141.90;54.87
5298;BME280;14738;42.668;23.250;2023-04-06T01:01:56;48604.72;;;-141.90;54.34
5298;BME280;14738;42.668;23.250;2023-04-06T01:04:22;48596.78;;;-141.90;54.59
5298;BME280;14738;42.668;23.250;2023-04-06T01:06:49;48614.63;;;-141.90;54.89
5298;BME280;14738;42.668;23.250;2023-04-06T01:09:14;48612.66;;;-141.90;54.71
5298;BME280;14738;42.668;23.250;2023-04-06T01:11:40;48614.63;;;-141.90;53.99
5298;BME280;14738;42.668;23.250;2023-04-06T01:14:06;48594.78;;;-141.90;54.63
5298;BME280;14738;42.668;23.250;2023-04-06T01:16:32;48572.94;;;-141.90;54.56
5298;BME280;14738;42.668;23.250;2023-04-06T01:19:01;48596.78;;;-141.90;54.33
5298;BME280;14738;42.668;23.250;2023-04-06T01:21:26;48614.63;;;-141.90;54.16
5298;BME280;14738;42.668;23.250;2023-04-06T01:23:53;48608.69;;;-141.90;54.02
5298;BME280;14738;42.668;23.250;2023-04-06T01:26:18;48604.72;;;-141.90;54.01
5298;BME280;14738;42.668;23.250;2023-04-06T01:28:44;48610.66;;;-141.90;54.21
5298;BME280;14738;42.668;23.250;2023-04-06T01:31:12;48592.81;;;-141.90;53.56
5298;BME280;14738;42.668;23.250;2023-04-06T01:33:38;48616.63;;;-141.90;53.59
5298;BME280;14738;42.668;23.250;2023-04-06T01:36:03;48580.88;;;-141.90;53.89
5298;BME280;14738;42.668;23.250;2023-04-06T01:38:32;48592.81;;;-141.90;53.65
5298;BME280;14738;42.668;23.250;2023-04-06T01:40:57;48606.69;;;-141.90;53.63
5298;BME280;14738;42.668;23.250;2023-04-06T01:43:23;48572.94;;;-141.90;53.44
5298;BME280;14738;42.668;23.250;2023-04-06T01:45:48;48600.75;;;-141.90;53.76
5298;BME280;14738;42.668;23.250;2023-04-06T01:48:14;48572.94;;;-141.90;53.86
5298;BME280;14738;42.668;23.250;2023-04-06T01:50:39;48604.72;;;-141.90;53.59
5298;BME280;14738;42.668;23.250;2023-04-06T01:53:05;48582.88;;;-141.90;53.20
5298;BME280;14738;42.668;23.250;2023-04-06T01:55:31;48580.88;;;-141.90;53.80
5298;BME280;14738;42.668;23.250;2023-04-06T01:57:56;48572.94;;;-141.90;53.19
5298;BME280;14738;42.668;23.250;2023-04-06T02:00:21;48612.66;;;-141.90;53.36
5298;BME280;14738;42.668;23.250;2023-04-06T02:02:47;48616.63;;;-141.90;52.93
5298;BME280;14738;42.668;23.250;2023-04-06T02:05:12;48596.78;;;-141.90;53.27
5298;BME280;14738;42.668;23.250;2023-04-06T02:07:38;48620.59;;;-141.90;53.06
5298;BME280;14738;42.668;23.250;2023-04-06T02:10:04;48606.69;;;-141.90;53.32
5298;BME280;14738;42.668;23.250;2023-04-06T02:12:29;48624.56;;;-141.90;52.65
5298;BME280;14738;42.668;23.250;2023-04-06T02:14:55;48588.84;;;-141.90;53.01
5298;BME280;14738;42.668;23.250;2023-04-06T02:17:20;48604.72;;;-141.90;53.35
5298;BME280;14738;42.668;23.250;2023-04-06T02:19:46;48584.84;;;-141.90;53.31
5298;BME280;14738;42.668;23.250;2023-04-06T02:22:11;48598.75;;;-141.90;53.17
5298;BME280;14738;42.668;23.250;2023-04-06T02:24:37;48600.75;;;-141.90;53.54
5298;BME280;14738;42.668;23.250;2023-04-06T02:27:02;48584.84;;;-141.90;53.41
5298;BME280;14738;42.668;23.250;2023-04-06T02:29:28;48602.72;;;-141.90;52.92
5298;BME280;14738;42.668;23.250;2023-04-06T02:31:53;48596.78;;;-141.90;53.22
5298;BME280;14738;42.668;23.250;2023-04-06T02:34:24;48584.84;;;-141.90;52.66
5298;BME280;14738;42.668;23.250;2023-04-06T02:36:50;48578.91;;;-141.90;53.29
5298;BME280;14738;42.668;23.250;2023-04-06T02:39:18;48612.66;;;-141.90;52.94
5298;BME280;14738;42.668;23.250;2023-04-06T02:41:46;48588.84;;;-141.90;53.59
5298;BME280;14738;42.668;23.250;2023-04-06T02:44:11;48600.75;;;-141.90;52.88
5298;BME280;14738;42.668;23.250;2023-04-06T02:46:37;48584.84;;;-141.90;53.06
5298;BME280;14738;42.668;23.250;2023-04-06T02:49:02;48620.59;;;-141.90;52.95
5298;BME280;14738;42.668;23.250;2023-04-06T02:51:28;48610.66;;;-141.90;53.34
5298;BME280;14738;42.668;23.250;2023-04-06T02:53:54;48584.84;;;-141.90;52.70
5298;BME280;14738;42.668;23.250;2023-04-06T02:56:20;48570.97;;;-141.90;53.09
5298;BME280;14738;42.668;23.250;2023-04-06T02:58:49;48580.88;;;-141.90;53.32
5298;BME280;14738;42.668;23.250;2023-04-06T03:01:15;48600.75;;;-141.90;53.34
5298;BME280;14738;42.668;23.250;2023-04-06T03:03:41;48594.78;;;-141.90;52.99
5298;BME280;14738;42.668;23.250;2023-04-06T03:06:07;48584.84;;;-141.90;53.10
5298;BME280;14738;42.668;23.250;2023-04-06T03:08:32;48608.69;;;-141.90;53.55
5298;BME280;14738;42.668;23.250;2023-04-06T03:11:00;48568.97;;;-141.90;53.59
5298;BME280;14738;42.668;23.250;2023-04-06T03:13:25;48584.84;;;-141.90;53.62
5298;BME280;14738;42.668;23.250;2023-04-06T03:15:51;48604.72;;;-141.90;53.48
5298;BME280;14738;42.668;23.250;2023-04-06T03:18:23;48644.41;;;-141.90;53.71
5298;BME280;14738;42.668;23.250;2023-04-06T03:20:49;48620.59;;;-141.90;53.98
5298;BME280;14738;42.668;23.250;2023-04-06T03:23:15;48584.84;;;-141.90;53.84
5298;BME280;14738;42.668;23.250;2023-04-06T03:25:41;48610.66;;;-141.90;53.88
5298;BME280;14738;42.668;23.250;2023-04-06T03:28:07;48600.75;;;-141.90;53.39
5298;BME280;14738;42.668;23.250;2023-04-06T03:30:37;48620.59;;;-141.90;53.15
5298;BME280;14738;42.668;23.250;2023-04-06T03:33:02;48608.69;;;-141.90;53.25
5298;BME280;14738;42.668;23.250;2023-04-06T03:35:28;48604.72;;;-141.90;53.15
5298;BME280;14738;42.668;23.250;2023-04-06T03:37:53;48606.69;;;-141.90;53.47
5298;BME280;14738;42.668;23.250;2023-04-06T03:40:21;48596.78;;;-141.90;53.47
5298;BME280;14738;42.668;23.250;2023-04-06T03:42:46;48582.88;;;-141.90;53.14
5298;BME280;14738;42.668;23.250;2023-04-06T03:45:15;48634.50;;;-141.90;52.95
5298;BME280;14738;42.668;23.250;2023-04-06T03:47:40;48598.75;;;-141.90;53.28
5298;BME280;14738;42.668;23.250;2023-04-06T03:50:24;48618.59;;;-141.90;53.53
5298;BME280;14738;42.668;23.250;2023-04-06T03:52:50;48596.78;;;-141.90;53.05
5298;BME280;14738;42.668;23.250;2023-04-06T03:55:30;48576.91;;;-141.90;53.68
5298;BME280;14738;42.668;23.250;2023-04-06T03:57:55;48596.78;;;-141.90;53.08
5298;BME280;14738;42.668;23.250;2023-04-06T04:00:24;48584.84;;;-141.90;53.61
5298;BME280;14738;42.668;23.250;2023-04-06T04:02:49;48594.78;;;-141.90;53.68
5298;BME280;14738;42.668;23.250;2023-04-06T04:05:21;48596.78;;;-141.90;53.53
5298;BME280;14738;42.668;23.250;2023-04-06T04:07:51;48580.88;;;-141.90;53.28
5298;BME280;14738;42.668;23.250;2023-04-06T04:10:16;48584.84;;;-141.90;53.64
5298;BME280;14738;42.668;23.250;2023-04-06T04:12:42;48594.78;;;-141.90;53.62
5298;BME280;14738;42.668;23.250;2023-04-06T04:15:08;48576.91;;;-141.90;52.53
5298;BME280;14738;42.668;23.250;2023-04-06T04:17:33;48604.72;;;-141.90;52.77
5298;BME280;14738;42.668;23.250;2023-04-06T04:19:59;48596.78;;;-141.90;52.53
5298;BME280;14738;42.668;23.250;2023-04-06T04:22:24;48584.84;;;-141.90;52.99
5298;BME280;14738;42.668;23.250;2023-04-06T04:24:49;48592.81;;;-141.90;52.65
5298;BME280;14738;42.668;23.250;2023-04-06T04:27:15;48525.31;;;-141.90;52.74
5298;BME280;14738;42.668;23.250;2023-04-06T04:30:06;48600.75;;;-141.90;52.75
5298;BME280;14738;42.668;23.250;2023-04-06T04:32:32;48586.84;;;-141.90;53.16
5298;BME280;14738;42.668;23.250;2023-04-06T04:46:42;48578.91;;;-141.90;52.51
5298;BME280;14738;42.668;23.250;2023-04-06T04:49:08;48586.84;;;-141.90;52.05
5298;BME280;14738;42.668;23.250;2023-04-06T04:51:33;48622.59;;;-141.90;52.24
5298;BME280;14738;42.668;23.250;2023-04-06T04:53:59;48574.94;;;-141.90;52.28
5298;BME280;14738;42.668;23.250;2023-04-06T04:56:24;48612.66;;;-141.90;51.59
5298;BME280;14738;42.668;23.250;2023-04-06T04:58:50;48568.97;;;-141.90;51.35
5298;BME280;14738;42.668;23.250;2023-04-06T05:01:16;48584.84;;;-141.90;51.77
5298;BME280;14738;42.668;23.250;2023-04-06T05:03:41;48584.84;;;-141.90;51.95
5298;BME280;14738;42.668;23.250;2023-04-06T05:06:10;48618.59;;;-141.90;51.17
5298;BME280;14738;42.668;23.250;2023-04-06T05:08:36;48557.06;;;-141.90;51.18
5298;BME280;14738;42.668;23.250;2023-04-06T05:11:01;48567.00;;;-141.90;51.12
5298;BME280;14738;42.668;23.250;2023-04-06T05:13:27;48561.03;;;-141.90;50.99
5298;BME280;14738;42.668;23.250;2023-04-06T05:15:52;48561.03;;;-141.90;50.79
5298;BME280;14738;42.668;23.250;2023-04-06T05:18:18;48580.88;;;-141.90;50.47
5298;BME280;14738;42.668;23.250;2023-04-06T05:20:43;48594.78;;;-141.90;50.33
5298;BME280;14738;42.668;23.250;2023-04-06T05:23:09;48557.06;;;-141.90;50.70
5298;BME280;14738;42.668;23.250;2023-04-06T05:25:35;48551.09;;;-141.90;49.98
5298;BME280;14738;42.668;23.250;2023-04-06T05:28:00;48588.84;;;-141.90;49.54
5298;BME280;14738;42.668;23.250;2023-04-06T05:30:26;48580.88;;;-141.90;49.53
5298;BME280;14738;42.668;23.250;2023-04-06T05:32:51;48565.00;;;-141.90;49.63
5298;BME280;14738;42.668;23.250;2023-04-06T05:35:17;48608.69;;;-141.90;49.43
5298;BME280;14738;42.668;23.250;2023-04-06T05:37:43;48565.00;;;-141.90;49.21
5298;BME280;14738;42.668;23.250;2023-04-06T05:40:09;48572.94;;;-141.90;49.04
5298;BME280;14738;42.668;23.250;2023-04-06T05:42:42;48584.84;;;-141.90;48.94
5298;BME280;14738;42.668;23.250;2023-04-06T05:45:08;48557.06;;;-141.90;49.78
5298;BME280;14738;42.668;23.250;2023-04-06T05:47:34;48561.03;;;-141.90;48.61
5298;BME280;14738;42.668;23.250;2023-04-06T05:50:00;48565.00;;;-141.90;48.89
5298;BME280;14738;42.668;23.250;2023-04-06T05:52:25;48557.06;;;-141.90;48.89
5298;BME280;14738;42.668;23.250;2023-04-06T05:54:52;48561.03;;;-141.90;48.77
5298;BME280;14738;42.668;23.250;2023-04-06T05:57:17;48563.03;;;-141.90;48.89
5298;BME280;14738;42.668;23.250;2023-04-06T05:59:43;48559.06;;;-141.90;48.31
5298;BME280;14738;42.668;23.250;2023-04-06T06:02:08;48565.00;;;-141.90;48.11
5298;BME280;14738;42.668;23.250;2023-04-06T06:04:34;48580.88;;;-141.90;48.71
5298;BME280;14738;42.668;23.250;2023-04-06T06:07:00;48551.09;;;-141.90;48.11
5298;BME280;14738;42.668;23.250;2023-04-06T06:09:25;48561.03;;;-141.90;48.69
5298;BME280;14738;42.668;23.250;2023-04-06T06:11:51;48596.78;;;-141.90;48.85
5298;BME280;14738;42.668;23.250;2023-04-06T06:14:16;48541.19;;;-141.90;48.42
5298;BME280;14738;42.668;23.250;2023-04-06T06:16:42;48574.94;;;-141.90;48.48
5298;BME280;14738;42.668;23.250;2023-04-06T06:19:07;48561.03;;;-141.90;48.09
5298;BME280;14738;42.668;23.250;2023-04-06T06:21:33;48563.03;;;-141.90;47.59
5298;BME280;14738;42.668;23.250;2023-04-06T06:23:58;48525.31;;;-141.90;46.53
5298;BME280;14738;42.668;23.250;2023-04-06T06:26:24;48531.25;;;-141.90;46.73
5298;BME280;14738;42.668;23.250;2023-04-06T06:28:49;48553.09;;;-141.90;46.13
5298;BME280;14738;42.668;23.250;2023-04-06T06:31:15;48541.19;;;-141.90;45.66
5298;BME280;14738;42.668;23.250;2023-04-06T06:33:41;48529.28;;;-141.90;45.73
5298;BME280;14738;42.668;23.250;2023-04-06T06:36:06;48523.31;;;-141.90;44.46
5298;BME280;14738;42.668;23.250;2023-04-06T06:38:32;48533.25;;;-141.90;44.62
5298;BME280;14738;42.668;23.250;2023-04-06T06:40:57;48539.19;;;-141.90;44.54
5298;BME280;14738;42.668;23.250;2023-04-06T06:43:23;48521.34;;;-141.90;43.92
5298;BME280;14738;42.668;23.250;2023-04-06T06:45:49;48529.28;;;-141.90;43.46
5298;BME280;14738;42.668;23.250;2023-04-06T06:48:14;48545.16;;;-141.90;43.64
5298;BME280;14738;42.668;23.250;2023-04-06T06:50:40;48521.34;;;-141.90;44.00
5298;BME280;14738;42.668;23.250;2023-04-06T06:53:05;48559.06;;;-141.90;43.13
5298;BME280;14738;42.668;23.250;2023-04-06T06:55:31;48533.25;;;-141.90;42.90
5298;BME280;14738;42.668;23.250;2023-04-06T06:57:56;48507.44;;;-141.90;42.53
5298;BME280;14738;42.668;23.250;2023-04-06T07:00:22;48517.34;;;-141.90;42.67
5298;BME280;14738;42.668;23.250;2023-04-06T07:02:48;48513.38;;;-141.90;41.27
5298;BME280;14738;42.668;23.250;2023-04-06T07:05:14;48537.22;;;-141.90;40.88
5298;BME280;14738;42.668;23.250;2023-04-06T07:07:40;48467.72;;;-141.90;41.21
5298;BME280;14738;42.668;23.250;2023-04-06T07:10:06;48521.34;;;-141.90;41.04
5298;BME280;14738;42.668;23.250;2023-04-06T07:12:31;48509.41;;;-141.90;41.29
5298;BME280;14738;42.668;23.250;2023-04-06T07:14:57;48465.75;;;-141.90;41.42
5298;BME280;14738;42.668;23.250;2023-04-06T07:17:22;48525.31;;;-141.90;40.70
5298;BME280;14738;42.668;23.250;2023-04-06T07:19:48;48521.34;;;-141.90;40.89
5298;BME280;14738;42.668;23.250;2023-04-06T07:22:13;48521.34;;;-141.90;41.51
5298;BME280;14738;42.668;23.250;2023-04-06T07:24:39;48489.56;;;-141.90;41.34
5298;BME280;14738;42.668;23.250;2023-04-06T07:27:04;48513.38;;;-141.90;41.14
5298;BME280;14738;42.668;23.250;2023-04-06T07:29:30;48521.34;;;-141.90;41.74
5298;BME280;14738;42.668;23.250;2023-04-06T07:31:55;48507.44;;;-141.90;41.58
5298;BME280;14738;42.668;23.250;2023-04-06T07:34:21;48537.22;;;-141.90;40.59
5298;BME280;14738;42.668;23.250;2023-04-06T07:36:47;48507.44;;;-141.90;40.40
5298;BME280;14738;42.668;23.250;2023-04-06T07:39:12;48485.59;;;-141.90;40.29
5298;BME280;14738;42.668;23.250;2023-04-06T07:41:38;48499.50;;;-141.90;40.15
5298;BME280;14738;42.668;23.250;2023-04-06T07:44:04;48511.41;;;-141.90;39.66
5298;BME280;14738;42.668;23.250;2023-04-06T07:46:30;48473.69;;;-141.90;40.06
5298;BME280;14738;42.668;23.250;2023-04-06T07:48:59;48489.56;;;-141.90;38.43
5298;BME280;14738;42.668;23.250;2023-04-06T07:51:26;48511.41;;;-141.90;39.55
5298;BME280;14738;42.668;23.250;2023-04-06T07:53:52;48479.63;;;-141.90;39.17
5298;BME280;14738;42.668;23.250;2023-04-06T07:56:17;48493.53;;;-141.90;38.90
5298;BME280;14738;42.668;23.250;2023-04-06T07:58:43;48513.38;;;-141.90;38.90
5298;BME280;14738;42.668;23.250;2023-04-06T08:01:08;48501.47;;;-141.90;39.92
5298;BME280;14738;42.668;23.250;2023-04-06T08:03:34;48473.69;;;-141.90;39.42
5298;BME280;14738;42.668;23.250;2023-04-06T08:06:00;48509.41;;;-141.90;40.00
5298;BME280;14738;42.668;23.250;2023-04-06T08:08:25;48495.53;;;-141.90;40.53
5298;BME280;14738;42.668;23.250;2023-04-06T08:10:51;48505.44;;;-141.90;40.87
5298;BME280;14738;42.668;23.250;2023-04-06T08:13:16;48507.44;;;-141.90;41.05
5298;BME280;14738;42.668;23.250;2023-04-06T08:15:42;48515.38;;;-141.90;40.29
5298;BME280;14738;42.668;23.250;2023-04-06T08:18:08;48509.41;;;-141.90;39.72
5298;BME280;14738;42.668;23.250;2023-04-06T08:20:34;48493.53;;;-141.90;40.25
5298;BME280;14738;42.668;23.250;2023-04-06T08:23:00;48485.59;;;-141.90;39.52
5298;BME280;14738;42.668;23.250;2023-04-06T08:25:25;48481.63;;;-141.90;38.94
5298;BME280;14738;42.668;23.250;2023-04-06T08:27:51;48457.81;;;-141.90;38.55
5298;BME280;14738;42.668;23.250;2023-04-06T08:30:16;48503.47;;;-141.90;38.93
5298;BME280;14738;42.668;23.250;2023-04-06T08:32:44;48493.53;;;-141.90;39.63
5298;BME280;14738;42.668;23.250;2023-04-06T08:35:09;48481.63;;;-141.90;38.72
5298;BME280;14738;42.668;23.250;2023-04-06T08:37:35;48513.38;;;-141.90;37.40
5298;BME280;14738;42.668;23.250;2023-04-06T08:40:00;48501.47;;;-141.90;37.37
5298;BME280;14738;42.668;23.250;2023-04-06T08:42:28;48495.53;;;-141.90;37.80
5298;BME280;14738;42.668;23.250;2023-04-06T08:44:57;48525.31;;;-141.90;39.05
5298;BME280;14738;42.668;23.250;2023-04-06T08:47:22;48509.41;;;-141.90;38.31
5298;BME280;14738;42.668;23.250;2023-04-06T08:49:48;48493.53;;;-141.90;37.43
5298;BME280;14738;42.668;23.250;2023-04-06T08:52:17;48517.34;;;-141.90;38.17
5298;BME280;14738;42.668;23.250;2023-04-06T08:54:43;48483.59;;;-141.90;38.08
5298;BME280;14738;42.668;23.250;2023-04-06T08:57:08;48479.63;;;-141.90;35.90
5298;BME280;14738;42.668;23.250;2023-04-06T08:59:35;48477.66;;;-141.90;36.95
5298;BME280;14738;42.668;23.250;2023-04-06T09:02:03;48481.63;;;-141.90;37.09
5298;BME280;14738;42.668;23.250;2023-04-06T09:04:31;48485.59;;;-141.90;36.80
5298;BME280;14738;42.668;23.250;2023-04-06T09:06:57;48461.78;;;-141.90;36.60
5298;BME280;14738;42.668;23.250;2023-04-06T09:09:23;48469.72;;;-141.90;36.80
5298;BME280;14738;42.668;23.250;2023-04-06T09:11:51;48507.44;;;-141.90;37.21
5298;BME280;14738;42.668;23.250;2023-04-06T09:14:32;48493.53;;;-141.90;38.76
5298;BME280;14738;42.668;23.250;2023-04-06T09:16:58;48469.72;;;-141.90;38.97
5298;BME280;14738;42.668;23.250;2023-04-06T09:19:23;48523.31;;;-141.90;38.05
5298;BME280;14738;42.668;23.250;2023-04-06T09:21:48;48487.56;;;-141.90;37.82
5298;BME280;14738;42.668;23.250;2023-04-06T09:24:14;48501.47;;;-141.90;38.28
5298;BME280;14738;42.668;23.250;2023-04-06T09:26:46;48503.47;;;-141.90;39.43
5298;BME280;14738;42.668;23.250;2023-04-06T09:29:22;48517.34;;;-141.90;38.93
5298;BME280;14738;42.668;23.250;2023-04-06T09:31:48;48499.50;;;-141.90;39.44
5298;BME280;14738;42.668;23.250;2023-04-06T09:34:21;48479.63;;;-141.90;38.67
5298;BME280;14738;42.668;23.250;2023-04-06T09:36:47;48501.47;;;-141.90;38.00
5298;BME280;14738;42.668;23.250;2023-04-06T09:39:13;48489.56;;;-141.90;36.63
5298;BME280;14738;42.668;23.250;2023-04-06T09:41:38;48463.75;;;-141.90;36.24
5298;BME280;14738;42.668;23.250;2023-04-06T09:44:06;48455.81;;;-141.90;36.40
5298;BME280;14738;42.668;23.250;2023-04-06T09:46:34;48511.41;;;-141.90;36.48
5298;BME280;14738;42.668;23.250;2023-04-06T09:49:02;48473.69;;;-141.90;37.10
5298;BME280;14738;42.668;23.250;2023-04-06T09:51:30;48517.34;;;-141.90;36.68
5298;BME280;14738;42.668;23.250;2023-04-06T09:53:57;48481.63;;;-141.90;35.64
5298;BME280;14738;42.668;23.250;2023-04-06T09:56:28;48493.53;;;-141.90;35.63
5298;BME280;14738;42.668;23.250;2023-04-06T09:59:02;48455.81;;;-141.90;36.10
5298;BME280;14738;42.668;23.250;2023-04-06T10:01:29;48479.63;;;-141.90;37.98
5298;BME280;14738;42.668;23.250;2023-04-06T10:06:27;48473.69;;;-141.90;36.18
5298;BME280;14738;42.668;23.250;2023-04-06T10:08:55;48477.66;;;-141.90;37.02
5298;BME280;14738;42.668;23.250;2023-04-06T10:11:22;48477.66;;;-141.90;35.65
5298;BME280;14738;42.668;23.250;2023-04-06T10:13:48;48477.66;;;-141.90;36.18
5298;BME280;14738;42.668;23.250;2023-04-06T10:16:17;48493.53;;;-141.90;35.73
5298;BME280;14738;42.668;23.250;2023-04-06T10:18:50;48491.56;;;-141.90;36.33
5298;BME280;14738;42.668;23.250;2023-04-06T10:21:23;48449.84;;;-141.90;35.43
5298;BME280;14738;42.668;23.250;2023-04-06T10:23:52;48501.47;;;-141.90;37.17
5298;BME280;14738;42.668;23.250;2023-04-06T10:26:22;48507.44;;;-141.90;36.21
5298;BME280;14738;42.668;23.250;2023-04-06T10:28:48;48489.56;;;-141.90;37.48
5298;BME280;14738;42.668;23.250;2023-04-06T10:31:15;48479.63;;;-141.90;36.75
5298;BME280;14738;42.668;23.250;2023-04-06T10:33:41;48483.59;;;-141.90;36.16
5298;BME280;14738;42.668;23.250;2023-04-06T10:36:22;48449.84;;;-141.90;35.64
5298;BME280;14738;42.668;23.250;2023-04-06T10:38:54;48495.53;;;-141.90;36.82
5298;BME280;14738;42.668;23.250;2023-04-06T10:41:20;48495.53;;;-141.90;37.41
5298;BME280;14738;42.668;23.250;2023-04-06T10:43:55;48507.44;;;-141.90;38.50
5298;BME280;14738;42.668;23.250;2023-04-06T10:46:25;48541.19;;;-141.90;38.20
5298;BME280;14738;42.668;23.250;2023-04-06T10:48:51;48489.56;;;-141.90;37.90
5298;BME280;14738;42.668;23.250;2023-04-06T10:51:18;48497.50;;;-141.90;38.12
5298;BME280;14738;42.668;23.250;2023-04-06T10:53:48;48481.63;;;-141.90;37.72
5298;BME280;14738;42.668;23.250;2023-04-06T10:56:18;48493.53;;;-141.90;38.08
5298;BME280;14738;42.668;23.250;2023-04-06T10:58:51;48461.78;;;-141.90;36.88
5298;BME280;14738;42.668;23.250;2023-04-06T11:01:19;48491.56;;;-141.90;36.01
5298;BME280;14738;42.668;23.250;2023-04-06T11:03:46;48473.69;;;-141.90;34.13
5298;BME280;14738;42.668;23.250;2023-04-06T11:06:24;48445.88;;;-141.90;33.88
5298;BME280;14738;42.668;23.250;2023-04-06T11:08:51;48445.88;;;-141.90;34.43
5298;BME280;14738;42.668;23.250;2023-04-06T11:11:18;48477.66;;;-141.90;34.96
5298;BME280;14738;42.668;23.250;2023-04-06T11:16:17;48483.59;;;-141.90;35.41
5298;BME280;14738;42.668;23.250;2023-04-06T11:19:00;48493.53;;;-141.90;36.17
5298;BME280;14738;42.668;23.250;2023-04-06T11:24:11;48465.75;;;-141.90;36.68
5298;BME280;14738;42.668;23.250;2023-04-06T11:27:00;48483.59;;;-141.90;37.24
5298;BME280;14738;42.668;23.250;2023-04-06T11:29:28;48430.00;;;-141.90;37.26
5298;BME280;14738;42.668;23.250;2023-04-06T11:31:58;48481.63;;;-141.90;36.39
5298;BME280;14738;42.668;23.250;2023-04-06T11:34:25;48473.69;;;-141.90;36.23
5298;BME280;14738;42.668;23.250;2023-04-06T11:36:58;48493.53;;;-141.90;36.17
5298;BME280;14738;42.668;23.250;2023-04-06T11:39:26;48489.56;;;-141.90;36.16
5298;BME280;14738;42.668;23.250;2023-04-06T11:42:02;48449.84;;;-141.90;35.36
5298;BME280;14738;42.668;23.250;2023-04-06T11:44:34;48473.69;;;-141.90;34.23
5298;BME280;14738;42.668;23.250;2023-04-06T11:47:03;48459.78;;;-141.90;34.24
5298;BME280;14738;42.668;23.250;2023-04-06T11:49:30;48489.56;;;-141.90;34.22
5298;BME280;14738;42.668;23.250;2023-04-06T11:52:00;48471.69;;;-141.90;34.19
5298;BME280;14738;42.668;23.250;2023-04-06T11:54:36;48493.53;;;-141.90;34.95
5298;BME280;14738;42.668;23.250;2023-04-06T11:57:05;48455.81;;;-141.90;34.41
5298;BME280;14738;42.668;23.250;2023-04-06T11:59:31;48485.59;;;-141.90;35.21
5298;BME280;14738;42.668;23.250;2023-04-06T12:01:57;48483.59;;;-141.90;35.72
5298;BME280;14738;42.668;23.250;2023-04-06T12:04:23;48489.56;;;-141.90;36.27
5298;BME280;14738;42.668;23.250;2023-04-06T12:06:49;48477.66;;;-141.90;34.83
5298;BME280;14738;42.668;23.250;2023-04-06T12:09:15;48479.63;;;-141.90;35.18
5298;BME280;14738;42.668;23.250;2023-04-06T12:11:41;48475.66;;;-141.90;34.63
5298;BME280;14738;42.668;23.250;2023-04-06T12:14:07;48517.34;;;-141.90;34.74
5298;BME280;14738;42.668;23.250;2023-04-06T12:16:33;48487.56;;;-141.90;34.71
5298;BME280;14738;42.668;23.250;2023-04-06T12:18:59;48477.66;;;-141.90;34.80
5298;BME280;14738;42.668;23.250;2023-04-06T12:21:30;48485.59;;;-141.90;35.18
5298;BME280;14738;42.668;23.250;2023-04-06T12:23:59;48485.59;;;-141.90;35.48
5298;BME280;14738;42.668;23.250;2023-04-06T12:26:25;48499.50;;;-141.90;34.80
5298;BME280;14738;42.668;23.250;2023-04-06T12:28:51;48491.56;;;-141.90;34.61
5298;BME280;14738;42.668;23.250;2023-04-06T12:31:18;48479.63;;;-141.90;34.32
5298;BME280;14738;42.668;23.250;2023-04-06T12:33:46;48465.75;;;-141.90;34.77
5298;BME280;14738;42.668;23.250;2023-04-06T12:36:16;48493.53;;;-141.90;34.48
5298;BME280;14738;42.668;23.250;2023-04-06T12:38:45;48485.59;;;-141.90;35.48
5298;BME280;14738;42.668;23.250;2023-04-06T12:41:12;48475.66;;;-141.90;35.58
5298;BME280;14738;42.668;23.250;2023-04-06T12:43:39;48473.69;;;-141.90;35.27
5298;BME280;14738;42.668;23.250;2023-04-06T12:46:04;48485.59;;;-141.90;35.10
5298;BME280;14738;42.668;23.250;2023-04-06T12:48:30;48489.56;;;-141.90;35.30
5298;BME280;14738;42.668;23.250;2023-04-06T12:51:01;48495.53;;;-141.90;35.15
5298;BME280;14738;42.668;23.250;2023-04-06T12:53:27;48465.75;;;-141.90;36.03
5298;BME280;14738;42.668;23.250;2023-04-06T12:55:56;48485.59;;;-141.90;35.16
5298;BME280;14738;42.668;23.250;2023-04-06T12:58:22;48495.53;;;-141.90;36.21